createdAt,value
2019-04-30T00:01:58.871Z,8.71
2019-04-30T00:04:37.589Z,8.62
2019-04-30T00:07:01.816Z,8.45
2019-04-30T00:09:31.974Z,8.44
2019-04-30T00:12:01.472Z,8.56
2019-04-30T00:14:36.895Z,8.46
2019-04-30T00:17:01.855Z,8.47
2019-04-30T00:19:31.130Z,8.46
2019-04-30T00:22:00.700Z,8.69
2019-04-30T00:24:30.099Z,8.60
2019-04-30T00:26:59.386Z,8.69
2019-04-30T00:29:30.999Z,8.56
2019-04-30T00:32:04.560Z,8.73
2019-04-30T00:34:34.901Z,8.61
2019-04-30T00:37:01.801Z,8.66
2019-04-30T00:39:31.084Z,8.59
2019-04-30T00:42:00.384Z,8.78
2019-04-30T00:44:29.682Z,8.79
2019-04-30T00:47:00.678Z,8.71
2019-04-30T00:49:31.834Z,8.73
2019-04-30T00:52:01.107Z,8.61
2019-04-30T00:54:30.950Z,8.62
2019-04-30T00:57:04.449Z,8.58
2019-04-30T00:59:31.524Z,8.65
2019-04-30T01:02:20.109Z,8.71
2019-04-30T01:04:48.461Z,8.66
2019-04-30T01:07:17.760Z,8.62
2019-04-30T01:09:49.865Z,8.70
2019-04-30T01:12:27.581Z,8.75
2019-04-30T01:14:49.775Z,8.73
2019-04-30T01:17:19.130Z,8.73
2019-04-30T01:19:51.123Z,8.75
2019-04-30T01:22:27.742Z,8.76
2019-04-30T01:24:50.692Z,8.82
2019-04-30T01:27:20.175Z,8.90
2019-04-30T01:29:49.823Z,8.86
2019-04-30T01:32:20.969Z,8.76
2019-04-30T01:34:53.741Z,8.76
2019-04-30T01:37:28.443Z,8.76
2019-04-30T01:39:52.171Z,8.76
2019-04-30T01:42:22.919Z,8.75
2019-04-30T01:44:53.900Z,8.96
2019-04-30T01:47:27.685Z,8.85
2019-04-30T01:50:01.048Z,8.92
2019-04-30T01:52:46.656Z,8.85
2019-04-30T01:55:16.001Z,8.93
2019-04-30T01:58:08.743Z,8.89
2019-04-30T02:00:56.713Z,9.01
2019-04-30T02:03:25.986Z,8.84
2019-04-30T02:05:55.272Z,8.96
2019-04-30T02:08:24.561Z,8.86
2019-04-30T02:10:53.866Z,8.90
2019-04-30T02:13:23.163Z,8.93
2019-04-30T02:15:52.519Z,9.00
2019-04-30T02:18:21.836Z,8.92
2019-04-30T02:20:51.148Z,9.03
2019-04-30T02:23:20.456Z,8.88
2019-04-30T02:25:49.775Z,8.82
2019-04-30T02:28:19.157Z,8.86
2019-04-30T02:33:31.077Z,8.97
2019-04-30T02:36:19.867Z,9.06
2019-04-30T02:38:51.724Z,8.96
2019-04-30T02:41:22.311Z,9.05
2019-04-30T02:43:54.306Z,9.03
2019-04-30T02:46:26.007Z,9.13
2019-04-30T02:48:59.759Z,9.08
2019-04-30T02:51:30.654Z,9.07
2019-04-30T02:54:23.873Z,9.01
2019-04-30T02:57:06.857Z,9.15
2019-04-30T02:59:56.544Z,8.98
2019-04-30T03:02:29.000Z,9.00
2019-04-30T03:05:00.127Z,8.96
2019-04-30T03:07:29.566Z,8.95
2019-04-30T03:09:59.944Z,9.11
2019-04-30T03:12:33.185Z,9.08
2019-04-30T03:15:00.622Z,9.19
2019-04-30T03:18:04.352Z,9.16
2019-04-30T03:21:01.505Z,9.07
2019-04-30T03:23:30.861Z,9.12
2019-04-30T03:26:00.312Z,9.06
2019-04-30T03:28:30.234Z,9.06
2019-04-30T03:31:04.011Z,9.06
2019-04-30T03:33:32.562Z,9.01
2019-04-30T03:36:02.625Z,9.07
2019-04-30T03:38:32.185Z,9.10
2019-04-30T03:41:01.470Z,9.10
2019-04-30T03:43:30.731Z,8.99
2019-04-30T03:46:02.856Z,8.92
2019-04-30T03:48:32.878Z,9.01
2019-04-30T03:51:02.150Z,8.99
2019-04-30T03:53:31.468Z,8.99
2019-04-30T03:56:01.440Z,9.01
2019-04-30T03:58:30.933Z,9.12
2019-04-30T04:01:10.363Z,9.02
2019-04-30T04:04:00.342Z,9.05
2019-04-30T04:06:35.290Z,8.89
2019-04-30T04:09:36.577Z,8.93
2019-04-30T04:12:25.029Z,9.11
2019-04-30T04:14:54.561Z,8.93
2019-04-30T04:17:24.034Z,8.84
2019-04-30T04:19:53.329Z,8.94
2019-04-30T04:22:23.067Z,8.94
2019-04-30T04:24:52.423Z,8.85
2019-04-30T04:27:22.072Z,8.89
2019-04-30T04:29:51.503Z,8.85
2019-04-30T04:32:24.262Z,8.76
2019-04-30T04:34:51.796Z,8.85
2019-04-30T04:37:21.118Z,8.92
2019-04-30T04:39:52.255Z,8.81
2019-04-30T04:42:21.540Z,8.69
2019-04-30T04:44:50.866Z,8.76
2019-04-30T04:47:20.470Z,8.82
2019-04-30T04:49:53.292Z,8.78
2019-04-30T04:52:22.014Z,8.61
2019-04-30T04:54:51.619Z,8.88
2019-04-30T04:57:22.649Z,8.91
2019-04-30T04:59:53.142Z,8.87
2019-04-30T05:02:50.659Z,8.71
2019-04-30T05:05:20.414Z,8.95
2019-04-30T05:07:50.347Z,8.81
2019-04-30T05:10:23.078Z,8.90
2019-04-30T05:12:53.387Z,8.74
2019-04-30T05:15:23.104Z,8.65
2019-04-30T05:17:53.969Z,8.66
2019-04-30T05:20:23.252Z,8.58
2019-04-30T05:22:54.260Z,8.70
2019-04-30T05:25:25.080Z,8.81
2019-04-30T05:27:54.980Z,8.85
2019-04-30T05:30:24.899Z,8.80
2019-04-30T05:32:54.871Z,8.85
2019-04-30T05:35:24.219Z,8.82
2019-04-30T05:37:53.482Z,8.86
2019-04-30T05:40:23.638Z,8.94
2019-04-30T05:42:52.922Z,8.97
2019-04-30T05:45:22.233Z,8.87
2019-04-30T05:47:51.630Z,9.04
2019-04-30T05:50:20.932Z,9.02
2019-04-30T05:52:50.243Z,9.04
2019-04-30T05:55:20.380Z,9.01
2019-04-30T05:57:55.817Z,8.89
2019-04-30T06:00:21.147Z,9.10
2019-04-30T06:02:51.851Z,8.96
2019-04-30T06:05:21.141Z,9.21
2019-04-30T06:07:51.977Z,8.96
2019-04-30T06:10:40.446Z,8.99
2019-04-30T06:13:16.777Z,8.65
2019-04-30T06:16:05.160Z,8.72
2019-04-30T06:18:34.426Z,8.63
2019-04-30T06:21:03.908Z,8.93
2019-04-30T06:23:33.227Z,8.94
2019-04-30T06:26:09.878Z,9.03
2019-04-30T06:28:34.667Z,8.86
2019-04-30T06:31:04.401Z,9.08
2019-04-30T06:33:33.910Z,9.19
2019-04-30T06:36:03.622Z,9.55
2019-04-30T06:38:32.915Z,9.57
2019-04-30T06:41:02.220Z,9.46
2019-04-30T06:43:31.625Z,9.21
2019-04-30T06:46:01.037Z,9.14
2019-04-30T06:48:30.512Z,9.13
2019-04-30T06:50:59.808Z,9.51
2019-04-30T06:53:29.357Z,9.64
2019-04-30T06:55:59.834Z,10.49
2019-04-30T06:58:29.323Z,11.77
2019-04-30T07:00:59.610Z,11.56
2019-04-30T07:03:30.860Z,12.60
2019-04-30T07:06:00.829Z,11.67
2019-04-30T07:08:55.683Z,12.14
2019-04-30T07:11:31.075Z,12.95
2019-04-30T07:14:00.383Z,12.72
2019-04-30T07:16:29.987Z,15.80
2019-04-30T07:18:59.358Z,17.81
2019-04-30T07:24:00.817Z,18.24
2019-04-30T07:26:30.130Z,17.80
2019-04-30T07:29:02.434Z,16.11
2019-04-30T07:31:31.968Z,14.69
2019-04-30T07:34:01.332Z,13.48
2019-04-30T07:36:45.229Z,12.51
2019-04-30T07:39:01.668Z,11.71
2019-04-30T07:41:31.363Z,11.40
2019-04-30T07:44:00.704Z,11.05
2019-04-30T07:46:34.758Z,10.82
2019-04-30T07:49:01.055Z,10.65
2019-04-30T07:51:32.273Z,10.27
2019-04-30T07:54:01.648Z,10.11
2019-04-30T07:56:37.315Z,10.17
2019-04-30T07:59:11.034Z,10.19
2019-04-30T08:01:58.138Z,10.11
2019-04-30T08:04:36.210Z,10.55
2019-04-30T08:07:06.482Z,10.41
2019-04-30T08:09:35.717Z,18.16
2019-04-30T08:09:39.860Z,10.64
2019-04-30T08:12:08.930Z,10.59
2019-04-30T08:14:39.066Z,10.63
2019-04-30T08:17:08.918Z,11.08
2019-04-30T08:19:38.800Z,11.07
2019-04-30T08:22:09.622Z,11.45
2019-04-30T08:24:39.171Z,12.03
2019-04-30T08:27:09.711Z,12.13
2019-04-30T08:29:39.533Z,12.25
2019-04-30T08:32:09.191Z,11.89
2019-04-30T08:34:39.405Z,11.45
2019-04-30T08:37:17.135Z,11.42
2019-04-30T08:39:42.501Z,12.06
2019-04-30T08:42:11.905Z,11.76
2019-04-30T08:44:41.180Z,11.57
2019-04-30T08:47:10.479Z,12.64
2019-04-30T08:49:40.624Z,13.39
2019-04-30T08:52:10.751Z,13.59
2019-04-30T08:54:40.335Z,13.13
2019-04-30T08:57:09.618Z,12.57
2019-04-30T08:59:39.475Z,12.88
2019-04-30T09:02:16.001Z,13.19
2019-04-30T09:04:39.960Z,14.45
2019-04-30T09:07:10.223Z,13.83
2019-04-30T09:09:39.648Z,13.24
2019-04-30T09:12:09.965Z,13.49
2019-04-30T09:14:40.651Z,13.21
2019-04-30T09:17:10.150Z,13.22
2019-04-30T09:19:39.460Z,12.86
2019-04-30T09:22:14.976Z,12.32
2019-04-30T09:24:40.926Z,12.13
2019-04-30T09:27:10.811Z,12.68
2019-04-30T09:29:40.319Z,12.54
2019-04-30T09:32:09.715Z,12.30
2019-04-30T09:34:40.427Z,12.47
2019-04-30T09:37:09.863Z,14.46
2019-04-30T09:39:39.363Z,15.88
2019-04-30T09:42:09.236Z,16.12
2019-04-30T09:44:39.118Z,17.90
2019-04-30T09:47:08.963Z,16.76
2019-04-30T09:49:39.140Z,14.18
2019-04-30T09:52:09.877Z,14.24
2019-04-30T09:54:39.953Z,14.61
2019-04-30T09:57:11.455Z,15.24
2019-04-30T09:59:41.876Z,15.80
2019-04-30T10:02:29.888Z,16.64
2019-04-30T10:04:59.681Z,16.22
2019-04-30T10:07:29.410Z,16.41
2019-04-30T10:09:59.952Z,16.08
2019-04-30T10:12:29.536Z,17.88
2019-04-30T10:14:59.257Z,17.88
2019-04-30T10:17:36.327Z,16.50
2019-04-30T10:20:08.605Z,16.68
2019-04-30T10:22:39.912Z,16.06
2019-04-30T10:25:09.488Z,16.30
2019-04-30T10:27:38.980Z,15.69
2019-04-30T10:30:10.206Z,15.06
2019-04-30T10:32:39.627Z,14.79
2019-04-30T10:35:09.165Z,14.77
2019-04-30T10:37:38.819Z,14.26
2019-04-30T10:40:10.322Z,14.02
2019-04-30T10:42:39.765Z,13.98
2019-04-30T10:45:10.378Z,13.50
2019-04-30T10:47:39.679Z,13.50
2019-04-30T10:50:10.370Z,14.19
2019-04-30T10:52:39.715Z,14.47
2019-04-30T10:55:09.540Z,15.49
2019-04-30T10:57:39.699Z,17.02
2019-04-30T11:00:13.788Z,17.30
2019-04-30T11:02:43.119Z,16.85
2019-04-30T11:05:13.227Z,16.01
2019-04-30T11:07:42.547Z,16.56
2019-04-30T11:10:12.489Z,16.76
2019-04-30T11:12:41.837Z,16.05
2019-04-30T11:15:11.299Z,15.04
2019-04-30T11:17:40.742Z,15.52
2019-04-30T11:20:10.683Z,15.69
2019-04-30T11:22:40.663Z,15.57
2019-04-30T11:25:10.480Z,15.25
2019-04-30T11:27:40.994Z,15.29
2019-04-30T11:30:20.310Z,16.33
2019-04-30T11:32:43.118Z,17.69
2019-04-30T11:35:14.370Z,17.14
2019-04-30T11:37:43.727Z,17.54
2019-04-30T11:40:13.780Z,16.91
2019-04-30T11:42:43.251Z,15.88
2019-04-30T11:45:15.029Z,16.00
2019-04-30T11:47:53.276Z,16.14
2019-04-30T11:50:15.669Z,16.85
2019-04-30T11:52:45.080Z,16.89
2019-04-30T11:55:15.794Z,16.91
2019-04-30T11:57:45.187Z,17.96
2019-04-30T12:00:20.200Z,18.16
2019-04-30T12:02:52.931Z,17.83
2019-04-30T12:05:30.034Z,17.42
2019-04-30T12:08:26.285Z,17.81
2019-04-30T12:10:58.570Z,18.13
2019-04-30T12:13:29.718Z,17.08
2019-04-30T12:15:59.218Z,16.92
2019-04-30T12:18:30.470Z,17.26
2019-04-30T12:20:59.791Z,17.56
2019-04-30T12:23:29.077Z,16.49
2019-04-30T12:26:01.023Z,16.55
2019-04-30T12:28:29.767Z,16.45
2019-04-30T12:30:59.183Z,17.55
2019-04-30T12:33:28.564Z,18.21
2019-04-30T12:35:59.569Z,18.29
2019-04-30T12:38:29.846Z,18.24
2019-04-30T12:40:59.372Z,17.72
2019-04-30T12:43:28.627Z,17.64
2019-04-30T12:46:03.471Z,17.52
2019-04-30T12:48:50.735Z,16.67
2019-04-30T12:51:45.856Z,16.19
2019-04-30T12:54:21.101Z,17.25
2019-04-30T12:57:10.834Z,17.06
2019-04-30T12:59:39.238Z,17.47
2019-04-30T13:02:09.124Z,17.59
2019-04-30T13:04:39.376Z,17.70
2019-04-30T13:07:10.403Z,17.69
2019-04-30T13:09:40.793Z,17.67
2019-04-30T13:12:12.235Z,17.46
2019-04-30T13:14:51.373Z,17.26
2019-04-30T13:17:12.868Z,17.50
2019-04-30T13:19:42.170Z,17.34
2019-04-30T13:22:11.507Z,17.48
2019-04-30T13:24:40.900Z,17.65
2019-04-30T13:27:23.682Z,17.78
2019-04-30T13:30:11.919Z,18.09
2019-04-30T13:32:49.413Z,18.06
2019-04-30T13:35:19.095Z,17.74
2019-04-30T13:38:00.691Z,17.12
2019-04-30T13:41:08.895Z,17.44
2019-04-30T13:43:56.148Z,17.47
2019-04-30T13:46:26.178Z,17.51
2019-04-30T13:48:55.486Z,17.46
2019-04-30T13:51:24.783Z,17.99
2019-04-30T13:53:54.077Z,17.74
2019-04-30T13:56:23.477Z,17.15
2019-04-30T13:58:52.777Z,17.15
2019-04-30T14:01:22.079Z,17.16
2019-04-30T14:04:19.504Z,17.19
2019-04-30T14:07:10.757Z,17.22
2019-04-30T14:09:40.222Z,16.99
2019-04-30T14:12:09.564Z,17.31
2019-04-30T14:14:39.590Z,17.35
2019-04-30T14:17:09.414Z,17.07
2019-04-30T14:19:38.810Z,16.75
2019-04-30T14:22:09.589Z,16.84
2019-04-30T14:24:40.123Z,17.07
2019-04-30T14:27:09.506Z,16.80
2019-04-30T14:29:39.563Z,16.99
2019-04-30T14:32:08.994Z,17.13
2019-04-30T14:34:39.517Z,17.19
2019-04-30T14:37:08.995Z,17.06
2019-04-30T14:39:38.608Z,16.79
2019-04-30T14:42:10.741Z,17.04
2019-04-30T14:44:40.344Z,17.13
2019-04-30T14:47:30.999Z,16.99
2019-04-30T14:50:09.862Z,16.57
2019-04-30T14:52:46.403Z,16.97
2019-04-30T14:55:43.590Z,17.30
2019-04-30T14:58:34.444Z,17.10
2019-04-30T15:01:35.155Z,17.18
2019-04-30T15:04:04.559Z,16.97
2019-04-30T15:06:34.954Z,17.27
2019-04-30T15:09:05.821Z,17.34
2019-04-30T15:11:35.267Z,17.17
2019-04-30T15:14:04.852Z,17.22
2019-04-30T15:16:34.186Z,17.18
2019-04-30T15:19:03.453Z,17.14
2019-04-30T15:21:32.752Z,17.11
2019-04-30T15:24:17.127Z,17.20
2019-04-30T15:26:46.427Z,17.34
2019-04-30T15:29:16.262Z,17.22
2019-04-30T15:31:45.830Z,17.34
2019-04-30T15:34:16.256Z,17.34
2019-04-30T15:36:45.522Z,17.09
2019-04-30T15:39:36.255Z,16.98
2019-04-30T15:42:05.962Z,17.00
2019-04-30T15:44:40.325Z,17.07
2019-04-30T15:47:08.951Z,17.06
2019-04-30T15:49:37.920Z,17.09
2019-04-30T15:52:10.774Z,16.99
2019-04-30T15:54:39.362Z,16.60
2019-04-30T15:57:08.992Z,16.89
2019-04-30T15:59:40.476Z,16.75
2019-04-30T16:02:24.258Z,16.85
2019-04-30T16:05:15.560Z,16.61
2019-04-30T16:07:54.723Z,16.78
2019-04-30T16:10:41.558Z,16.89
2019-04-30T16:13:19.527Z,16.75
2019-04-30T16:15:49.243Z,16.79
2019-04-30T16:18:19.606Z,16.73
2019-04-30T16:20:49.874Z,16.57
2019-04-30T16:23:19.468Z,16.66
2019-04-30T16:25:48.850Z,16.73
2019-04-30T16:28:19.591Z,16.35
2019-04-30T16:30:49.091Z,16.58
2019-04-30T16:33:19.546Z,16.60
2019-04-30T16:35:51.007Z,16.65
2019-04-30T16:38:20.929Z,16.33
2019-04-30T16:40:50.372Z,16.14
2019-04-30T16:43:20.786Z,15.93
2019-04-30T16:45:51.162Z,15.97
2019-04-30T16:48:20.465Z,15.93
2019-04-30T16:50:51.196Z,16.04
2019-04-30T16:53:20.703Z,15.89
2019-04-30T16:55:50.718Z,15.88
2019-04-30T16:58:20.071Z,15.85
2019-04-30T17:00:49.621Z,15.82
2019-04-30T17:03:39.852Z,15.71
2019-04-30T17:06:14.875Z,15.66
2019-04-30T17:08:50.061Z,15.68
2019-04-30T17:11:38.668Z,15.71
2019-04-30T17:14:11.380Z,15.61
2019-04-30T17:16:42.179Z,15.60
2019-04-30T17:19:11.461Z,15.59
2019-04-30T17:21:40.767Z,15.54
2019-04-30T17:24:10.107Z,15.64
2019-04-30T17:26:39.405Z,15.84
2019-04-30T17:29:09.630Z,15.78
2019-04-30T17:31:39.003Z,15.56
2019-04-30T17:34:08.755Z,15.42
2019-04-30T17:36:39.682Z,15.36
2019-04-30T17:39:12.745Z,15.27
2019-04-30T17:41:42.058Z,15.21
2019-04-30T17:44:11.370Z,15.13
2019-04-30T17:46:40.692Z,15.08
2019-04-30T17:49:10.164Z,14.97
2019-04-30T17:51:39.463Z,14.97
2019-04-30T17:54:14.897Z,14.92
2019-04-30T17:56:45.436Z,14.86
2019-04-30T17:59:14.964Z,14.83
2019-04-30T18:01:49.636Z,14.81
2019-04-30T18:04:22.095Z,14.71
2019-04-30T18:06:51.526Z,14.70
2019-04-30T18:09:21.110Z,14.60
2019-04-30T18:11:50.384Z,14.49
2019-04-30T18:14:23.694Z,14.43
2019-04-30T18:16:53.017Z,14.42
2019-04-30T18:19:46.756Z,14.31
2019-04-30T18:22:36.188Z,14.18
2019-04-30T18:25:12.301Z,13.96
2019-04-30T18:27:49.474Z,13.86
2019-04-30T18:30:21.348Z,13.70
2019-04-30T18:32:50.680Z,13.65
2019-04-30T18:35:20.343Z,13.58
2019-04-30T18:37:49.771Z,13.50
2019-04-30T18:40:19.047Z,13.45
2019-04-30T18:42:49.473Z,13.35
2019-04-30T18:45:19.424Z,13.28
2019-04-30T18:47:49.073Z,13.18
2019-04-30T18:50:18.637Z,13.11
2019-04-30T18:52:50.671Z,13.00
2019-04-30T18:55:22.965Z,12.90
2019-04-30T18:57:56.852Z,12.82
2019-04-30T19:00:31.077Z,12.70
2019-04-30T19:03:00.415Z,12.64
2019-04-30T19:05:31.193Z,12.53
2019-04-30T19:08:05.658Z,12.46
2019-04-30T19:11:04.841Z,12.42
2019-04-30T19:13:56.228Z,12.27
2019-04-30T19:16:59.788Z,12.21
2019-04-30T19:19:40.302Z,12.07
2019-04-30T19:22:09.418Z,12.04
2019-04-30T19:24:38.669Z,11.82
2019-04-30T19:27:08.663Z,11.78
2019-04-30T19:29:39.218Z,11.69
2019-04-30T19:32:09.428Z,11.69
2019-04-30T19:34:39.099Z,11.56
2019-04-30T19:37:08.752Z,11.39
2019-04-30T19:39:39.245Z,11.27
2019-04-30T19:42:09.066Z,11.27
2019-04-30T19:44:39.476Z,11.14
2019-04-30T19:47:09.352Z,11.15
2019-04-30T19:49:40.747Z,11.22
2019-04-30T19:52:11.854Z,11.21
2019-04-30T19:54:42.323Z,11.11
2019-04-30T19:57:13.458Z,11.04
2019-04-30T19:59:42.732Z,11.05
2019-04-30T20:02:13.490Z,10.96
2019-04-30T20:04:42.769Z,10.90
2019-04-30T20:07:12.063Z,10.75
2019-04-30T20:09:43.123Z,10.85
2019-04-30T20:12:12.418Z,10.82
2019-04-30T20:14:41.720Z,10.83
2019-04-30T20:17:13.206Z,10.78
2019-04-30T20:19:42.984Z,10.80
2019-04-30T20:22:12.785Z,10.64
2019-04-30T20:24:42.312Z,10.61
2019-04-30T20:27:11.764Z,10.55
2019-04-30T20:29:41.107Z,10.59
2019-04-30T20:32:10.393Z,10.61
2019-04-30T20:34:39.987Z,10.46
2019-04-30T20:37:09.323Z,10.39
2019-04-30T20:39:49.293Z,10.40
2019-04-30T20:42:18.545Z,10.38
2019-04-30T20:44:48.990Z,10.34
2019-04-30T20:47:20.878Z,10.37
2019-04-30T20:49:49.452Z,10.28
2019-04-30T20:52:20.599Z,10.18
2019-04-30T20:54:49.787Z,10.00
2019-04-30T20:57:19.938Z,9.83
2019-04-30T20:59:49.367Z,9.52
2019-04-30T21:02:20.450Z,9.55
2019-04-30T21:04:49.752Z,9.46
2019-04-30T21:07:19.551Z,9.49
2019-04-30T21:09:48.922Z,9.50
2019-04-30T21:12:18.829Z,9.42
2019-04-30T21:14:48.591Z,9.54
2019-04-30T21:17:18.014Z,9.61
2019-04-30T21:19:47.280Z,9.63
2019-04-30T21:22:16.657Z,9.45
2019-04-30T21:24:47.021Z,9.47
2019-04-30T21:27:16.297Z,9.52
2019-04-30T21:29:45.589Z,9.44
2019-04-30T21:32:21.320Z,9.28
2019-04-30T21:34:54.477Z,9.24
2019-04-30T21:37:23.856Z,9.10
2019-04-30T21:39:53.263Z,9.02
2019-04-30T21:42:22.609Z,8.99
2019-04-30T21:44:52.017Z,9.04
2019-04-30T21:47:21.775Z,9.11
2019-04-30T21:49:51.072Z,9.02
2019-04-30T21:52:20.383Z,8.98
2019-04-30T21:54:51.188Z,8.99
2019-04-30T21:57:21.748Z,8.80
2019-04-30T21:59:50.997Z,8.84
2019-04-30T22:02:20.430Z,8.75
2019-04-30T22:04:49.911Z,8.80
2019-04-30T22:07:19.597Z,8.86
2019-04-30T22:09:48.961Z,8.80
2019-04-30T22:12:19.165Z,8.78
2019-04-30T22:14:48.591Z,8.74
2019-04-30T22:17:19.320Z,8.83
2019-04-30T22:19:51.641Z,8.80
2019-04-30T22:22:22.321Z,8.70
2019-04-30T22:24:51.592Z,8.67
2019-04-30T22:27:20.950Z,8.38
2019-04-30T22:29:50.230Z,8.38
2019-04-30T22:32:19.491Z,8.61
2019-04-30T22:34:48.839Z,8.50
2019-04-30T22:37:19.546Z,8.59
2019-04-30T22:39:55.807Z,8.49
2019-04-30T22:42:34.298Z,8.48
2019-04-30T22:45:07.192Z,8.46
2019-04-30T22:47:37.962Z,8.40
2019-04-30T22:50:08.937Z,8.33
2019-04-30T22:52:38.237Z,8.36
2019-04-30T22:55:07.709Z,8.27
2019-04-30T22:57:38.093Z,8.26
2019-04-30T23:00:10.097Z,8.24
2019-04-30T23:02:49.155Z,8.27
2019-04-30T23:05:18.728Z,8.20
2019-04-30T23:07:48.021Z,8.25
2019-04-30T23:10:18.380Z,8.21
2019-04-30T23:12:47.884Z,8.24
2019-04-30T23:15:19.508Z,8.22
2019-04-30T23:17:49.068Z,8.09
2019-04-30T23:20:18.324Z,7.95
2019-04-30T23:22:47.585Z,7.93
2019-04-30T23:25:17.083Z,7.93
2019-04-30T23:27:49.244Z,7.76
2019-04-30T23:30:19.862Z,7.77
2019-04-30T23:32:50.113Z,7.61
2019-04-30T23:35:19.381Z,7.63
2019-04-30T23:37:48.646Z,7.77
2019-04-30T23:40:27.120Z,7.72
2019-04-30T23:42:57.986Z,7.72
2019-04-30T23:45:27.457Z,7.56
2019-04-30T23:47:56.739Z,7.64
2019-04-30T23:50:26.034Z,7.66
2019-04-30T23:52:57.106Z,7.63
2019-04-30T23:55:26.374Z,7.66
2019-04-30T23:57:55.679Z,7.48
